createdAt,value
2016-10-02T00:00:26.002Z,15.67
2016-10-02T00:01:26.003Z,15.57
2016-10-02T00:02:25.998Z,15.62
2016-10-02T00:03:25.998Z,15.57
2016-10-02T00:04:25.983Z,15.6
2016-10-02T00:05:25.982Z,15.65
2016-10-02T00:06:25.977Z,15.64
2016-10-02T00:07:25.971Z,15.6
2016-10-02T00:09:27.719Z,15.6
2016-10-02T00:10:26.514Z,15.68
2016-10-02T00:11:40.876Z,15.67
2016-10-02T00:12:25.955Z,15.67
2016-10-02T00:13:25.947Z,15.64
2016-10-02T00:14:25.951Z,15.53
2016-10-02T00:15:25.938Z,15.49
2016-10-02T00:16:25.940Z,15.49
2016-10-02T00:17:26.289Z,15.49
2016-10-02T00:18:26.324Z,15.49
2016-10-02T00:19:26.249Z,15.57
2016-10-02T00:20:26.419Z,15.6
2016-10-02T00:21:40.836Z,15.6
2016-10-02T00:22:26.465Z,15.57
2016-10-02T00:23:25.919Z,15.57
2016-10-02T00:24:25.903Z,15.59
2016-10-02T00:25:25.900Z,15.67
2016-10-02T00:26:25.897Z,15.59
2016-10-02T00:27:25.893Z,15.6
2016-10-02T00:28:25.901Z,15.47
2016-10-02T00:29:25.879Z,15.54
2016-10-02T00:30:25.881Z,15.53
2016-10-02T00:31:25.874Z,15.5
2016-10-02T00:32:25.869Z,15.39
2016-10-02T00:33:25.870Z,15.41
2016-10-02T00:34:25.860Z,15.44
2016-10-02T00:35:25.857Z,15.39
2016-10-02T00:36:25.853Z,15.38
2016-10-02T00:37:25.863Z,15.31
2016-10-02T00:38:25.849Z,15.29
2016-10-02T00:39:25.848Z,15.21
2016-10-02T00:40:25.836Z,15.17
2016-10-02T00:41:25.834Z,15.09
2016-10-02T00:42:25.827Z,15.03
2016-10-02T00:43:25.825Z,15.01
2016-10-02T00:44:25.828Z,14.88
2016-10-02T00:45:25.818Z,14.94
2016-10-02T00:46:25.815Z,14.83
2016-10-02T00:47:25.813Z,14.73
2016-10-02T00:48:25.804Z,14.73
2016-10-02T00:49:25.797Z,14.57
2016-10-02T00:50:25.797Z,14.61
2016-10-02T00:51:25.787Z,14.47
2016-10-02T00:52:25.786Z,14.52
2016-10-02T00:53:25.784Z,14.47
2016-10-02T00:54:25.776Z,14.35
2016-10-02T00:55:25.772Z,14.28
2016-10-02T00:56:25.766Z,14.29
2016-10-02T00:57:25.785Z,14.21
2016-10-02T00:58:25.762Z,14.18
2016-10-02T00:59:25.751Z,14.15
2016-10-02T01:00:27.036Z,14.18
2016-10-02T01:01:25.775Z,14.03
2016-10-02T01:02:26.697Z,13.97
2016-10-02T01:03:26.189Z,13.96
2016-10-02T01:04:25.732Z,13.91
2016-10-02T01:05:25.730Z,13.85
2016-10-02T01:06:25.727Z,13.88
2016-10-02T01:07:25.720Z,13.77
2016-10-02T01:08:25.714Z,13.82
2016-10-02T01:09:27.628Z,13.67
2016-10-02T01:10:26.676Z,13.67
2016-10-02T01:11:25.705Z,13.64
2016-10-02T01:12:25.697Z,13.57
2016-10-02T01:13:25.699Z,13.51
2016-10-02T01:14:26.005Z,13.41
2016-10-02T01:15:25.678Z,13.38
2016-10-02T01:16:25.670Z,13.39
2016-10-02T01:17:25.671Z,13.29
2016-10-02T01:18:25.658Z,13.25
2016-10-02T01:19:25.655Z,13.25
2016-10-02T01:20:25.651Z,13.3
2016-10-02T01:21:25.643Z,13.26
2016-10-02T01:22:25.633Z,13.25
2016-10-02T01:23:25.640Z,13.15
2016-10-02T01:24:25.624Z,13.22
2016-10-02T01:25:25.632Z,13.12
2016-10-02T01:26:40.885Z,13.11
2016-10-02T01:27:56.095Z,13.08
2016-10-02T01:28:26.110Z,13.11
2016-10-02T01:29:25.606Z,12.97
2016-10-02T01:30:25.598Z,13.04
2016-10-02T01:31:25.581Z,13.05
2016-10-02T01:32:25.592Z,13.03
2016-10-02T01:33:25.578Z,13
2016-10-02T01:34:25.578Z,13
2016-10-02T01:35:26.017Z,12.93
2016-10-02T01:36:25.915Z,12.87
2016-10-02T01:37:25.660Z,12.87
2016-10-02T01:38:26.065Z,12.86
2016-10-02T01:39:26.148Z,12.82
2016-10-02T01:40:25.893Z,12.87
2016-10-02T01:41:25.532Z,12.72
2016-10-02T01:42:25.524Z,12.78
2016-10-02T01:43:25.528Z,12.75
2016-10-02T01:44:25.517Z,12.75
2016-10-02T01:45:25.508Z,12.72
2016-10-02T01:46:25.503Z,12.71
2016-10-02T01:47:25.503Z,12.68
2016-10-02T01:48:25.499Z,12.71
2016-10-02T01:49:25.485Z,12.68
2016-10-02T01:50:25.479Z,12.62
2016-10-02T01:51:25.479Z,12.59
2016-10-02T01:52:25.473Z,12.57
2016-10-02T01:53:25.465Z,12.56
2016-10-02T01:54:25.461Z,12.46
2016-10-02T01:55:25.452Z,12.47
2016-10-02T01:56:25.456Z,12.5
2016-10-02T01:57:25.442Z,12.42
2016-10-02T01:58:25.432Z,12.37
2016-10-02T01:59:25.431Z,12.41
2016-10-02T02:00:25.426Z,12.34
2016-10-02T02:01:25.429Z,12.37
2016-10-02T02:02:25.420Z,12.32
2016-10-02T02:03:25.402Z,12.27
2016-10-02T02:04:25.409Z,12.29
2016-10-02T02:05:25.399Z,12.27
2016-10-02T02:06:25.399Z,12.17
2016-10-02T02:07:25.381Z,12.21
2016-10-02T02:08:25.375Z,12.24
2016-10-02T02:09:25.372Z,12.16
2016-10-02T02:10:25.369Z,12.14
2016-10-02T02:11:25.352Z,12.16
2016-10-02T02:12:25.353Z,12.1
2016-10-02T02:13:25.348Z,12.09
2016-10-02T02:14:25.335Z,12.04
2016-10-02T02:15:25.334Z,12.13
2016-10-02T02:16:25.327Z,11.99
2016-10-02T02:17:25.328Z,11.96
2016-10-02T02:18:27.040Z,12.02
2016-10-02T02:19:25.747Z,11.98
2016-10-02T02:20:26.529Z,11.94
2016-10-02T02:21:26.221Z,11.95
2016-10-02T02:22:25.677Z,11.95
2016-10-02T02:23:25.282Z,11.91
2016-10-02T02:24:25.281Z,11.9
2016-10-02T02:25:25.274Z,11.88
2016-10-02T02:26:25.267Z,11.9
2016-10-02T02:27:25.799Z,11.98
2016-10-02T02:28:26.706Z,11.95
2016-10-02T02:29:25.547Z,11.88
2016-10-02T02:30:25.243Z,11.9
2016-10-02T02:31:25.232Z,11.83
2016-10-02T02:32:25.226Z,11.75
2016-10-02T02:33:25.219Z,11.82
2016-10-02T02:34:25.217Z,11.83
2016-10-02T02:35:25.208Z,11.76
2016-10-02T02:36:25.205Z,11.75
2016-10-02T02:37:25.195Z,11.75
2016-10-02T02:38:25.186Z,11.79
2016-10-02T02:39:25.190Z,11.78
2016-10-02T02:40:25.183Z,11.7
2016-10-02T02:41:25.164Z,11.65
2016-10-02T02:42:25.168Z,11.65
2016-10-02T02:43:25.166Z,11.67
2016-10-02T02:44:25.146Z,11.67
2016-10-02T02:45:25.149Z,11.61
2016-10-02T02:46:25.142Z,11.52
2016-10-02T02:47:25.126Z,11.54
2016-10-02T02:48:25.122Z,11.54
2016-10-02T02:49:25.115Z,11.51
2016-10-02T02:50:25.110Z,11.54
2016-10-02T02:51:25.109Z,11.46
2016-10-02T02:52:25.099Z,11.54
2016-10-02T02:53:25.092Z,11.49
2016-10-02T02:54:25.081Z,11.51
2016-10-02T02:55:25.077Z,11.44
2016-10-02T02:56:25.076Z,11.51
2016-10-02T02:57:25.070Z,11.57
2016-10-02T02:58:25.065Z,11.54
2016-10-02T02:59:25.051Z,11.54
2016-10-02T03:00:25.049Z,11.62
2016-10-02T03:01:25.042Z,11.61
2016-10-02T03:02:25.336Z,11.54
2016-10-02T03:03:25.023Z,11.58
2016-10-02T03:04:25.019Z,11.49
2016-10-02T03:05:25.020Z,11.57
2016-10-02T03:06:25.008Z,11.52
2016-10-02T03:07:24.998Z,11.51
2016-10-02T03:08:24.997Z,11.55
2016-10-02T03:09:24.993Z,11.52
2016-10-02T03:10:24.989Z,11.43
2016-10-02T03:11:24.974Z,11.42
2016-10-02T03:12:24.968Z,11.43
2016-10-02T03:13:24.964Z,11.44
2016-10-02T03:14:24.960Z,11.39
2016-10-02T03:15:24.949Z,11.29
2016-10-02T03:16:24.942Z,11.39
2016-10-02T03:17:24.953Z,11.32
2016-10-02T03:18:24.933Z,11.37
2016-10-02T03:19:24.922Z,11.36
2016-10-02T03:20:24.913Z,11.27
2016-10-02T03:21:24.909Z,11.25
2016-10-02T03:22:24.900Z,11.27
2016-10-02T03:23:24.898Z,11.33
2016-10-02T03:24:24.886Z,11.27
2016-10-02T03:25:24.872Z,11.32
2016-10-02T03:26:24.885Z,11.25
2016-10-02T03:27:24.864Z,11.32
2016-10-02T03:28:24.864Z,11.32
2016-10-02T03:29:24.854Z,11.29
2016-10-02T03:30:24.846Z,11.32
2016-10-02T03:31:24.840Z,11.25
2016-10-02T03:32:24.833Z,11.22
2016-10-02T03:33:24.828Z,11.18
2016-10-02T03:34:24.828Z,11.15
2016-10-02T03:35:24.809Z,11.17
2016-10-02T03:36:24.804Z,11.27
2016-10-02T03:37:24.801Z,11.14
2016-10-02T03:38:24.791Z,11.15
2016-10-02T03:39:24.788Z,11.11
2016-10-02T03:40:24.781Z,11.07
2016-10-02T03:41:24.773Z,11.1
2016-10-02T03:42:24.768Z,11.07
2016-10-02T03:43:24.755Z,11.14
2016-10-02T03:44:25.654Z,11.09
2016-10-02T03:45:25.597Z,11.1
2016-10-02T03:46:25.250Z,11.14
2016-10-02T03:47:39.641Z,11.02
2016-10-02T03:48:24.720Z,10.96
2016-10-02T03:49:25.461Z,10.99
2016-10-02T03:50:24.707Z,11.02
2016-10-02T03:51:24.701Z,11.06
2016-10-02T03:52:24.689Z,10.97
2016-10-02T03:53:39.603Z,10.89
2016-10-02T03:54:39.846Z,10.92
2016-10-02T03:55:25.923Z,11
2016-10-02T03:56:24.671Z,11.02
2016-10-02T03:57:24.710Z,10.89
2016-10-02T03:58:24.657Z,10.92
2016-10-02T03:59:25.350Z,10.89
2016-10-02T04:00:24.639Z,10.89
2016-10-02T04:01:24.643Z,10.86
2016-10-02T04:02:24.627Z,10.88
2016-10-02T04:03:24.622Z,10.94
2016-10-02T04:04:24.612Z,10.82
2016-10-02T04:05:24.609Z,10.84
2016-10-02T04:06:24.608Z,10.82
2016-10-02T04:07:24.595Z,10.78
2016-10-02T04:08:24.600Z,10.78
2016-10-02T04:09:24.576Z,10.81
2016-10-02T04:10:24.570Z,10.79
2016-10-02T04:11:24.566Z,10.73
2016-10-02T04:12:24.557Z,10.73
2016-10-02T04:13:24.546Z,10.73
2016-10-02T04:14:24.841Z,10.7
2016-10-02T04:15:24.533Z,10.76
2016-10-02T04:16:24.530Z,10.76
2016-10-02T04:17:24.518Z,10.74
2016-10-02T04:18:24.518Z,10.78
2016-10-02T04:19:24.506Z,10.73
2016-10-02T04:20:24.507Z,10.76
2016-10-02T04:21:24.494Z,10.7
2016-10-02T04:22:24.483Z,10.74
2016-10-02T04:23:24.475Z,10.73
2016-10-02T04:24:24.472Z,10.73
2016-10-02T04:25:24.465Z,10.76
2016-10-02T04:26:24.461Z,10.74
2016-10-02T04:27:24.455Z,10.73
2016-10-02T04:28:24.446Z,10.74
2016-10-02T04:29:24.441Z,10.76
2016-10-02T04:30:24.432Z,10.7
2016-10-02T04:31:24.429Z,10.73
2016-10-02T04:32:24.415Z,10.7
2016-10-02T04:33:24.412Z,10.67
2016-10-02T04:34:24.399Z,10.61
2016-10-02T04:35:24.412Z,10.63
2016-10-02T04:36:25.906Z,10.71
2016-10-02T04:37:26.790Z,10.63
2016-10-02T04:38:24.371Z,10.67
2016-10-02T04:39:25.042Z,10.66
2016-10-02T04:40:24.475Z,10.66
2016-10-02T04:41:24.348Z,10.63
2016-10-02T04:42:24.342Z,10.61
2016-10-02T04:43:24.338Z,10.61
2016-10-02T04:44:24.327Z,10.61
2016-10-02T04:45:26.001Z,10.64
2016-10-02T04:46:24.926Z,10.47
2016-10-02T04:47:25.923Z,10.63
2016-10-02T04:48:24.300Z,10.55
2016-10-02T04:49:39.206Z,10.59
2016-10-02T04:50:24.460Z,10.63
2016-10-02T04:51:24.279Z,10.52
2016-10-02T04:52:24.280Z,10.61
2016-10-02T04:53:24.260Z,10.63
2016-10-02T04:54:24.263Z,10.6
2016-10-02T04:55:24.248Z,10.6
2016-10-02T04:56:24.245Z,10.61
2016-10-02T04:57:24.237Z,10.63
2016-10-02T04:58:24.239Z,10.63
2016-10-02T04:59:24.219Z,10.66
2016-10-02T05:00:24.217Z,10.64
2016-10-02T05:01:24.203Z,10.64
2016-10-02T05:02:25.001Z,10.68
2016-10-02T05:03:25.245Z,10.71
2016-10-02T05:04:24.182Z,10.63
2016-10-02T05:05:24.227Z,10.66
2016-10-02T05:06:24.723Z,10.68
2016-10-02T05:07:24.613Z,10.64
2016-10-02T05:08:24.159Z,10.63
2016-10-02T05:09:24.249Z,10.71
2016-10-02T05:10:24.157Z,10.68
2016-10-02T05:11:40.248Z,10.71
2016-10-02T05:12:24.431Z,10.64
2016-10-02T05:13:24.822Z,10.67
2016-10-02T05:14:24.119Z,10.61
2016-10-02T05:15:24.101Z,10.67
2016-10-02T05:16:24.097Z,10.63
2016-10-02T05:17:24.099Z,10.7
2016-10-02T05:18:24.092Z,10.67
2016-10-02T05:19:24.072Z,10.7
2016-10-02T05:20:24.070Z,10.73
2016-10-02T05:21:24.059Z,10.76
2016-10-02T05:22:24.061Z,10.66
2016-10-02T05:23:24.043Z,10.76
2016-10-02T05:24:24.042Z,10.78
2016-10-02T05:25:24.032Z,10.73
2016-10-02T05:26:24.026Z,10.79
2016-10-02T05:27:24.021Z,10.78
2016-10-02T05:28:24.017Z,10.82
2016-10-02T05:29:24.001Z,10.88
2016-10-02T05:30:23.999Z,10.86
2016-10-02T05:31:23.998Z,10.89
2016-10-02T05:32:23.984Z,10.88
2016-10-02T05:33:23.972Z,10.99
2016-10-02T05:34:23.969Z,11.07
2016-10-02T05:35:23.965Z,11.11
2016-10-02T05:36:23.961Z,11.09
2016-10-02T05:37:23.944Z,11.27
2016-10-02T05:38:23.947Z,11.21
2016-10-02T05:39:23.936Z,11.32
2016-10-02T05:40:23.928Z,11.4
2016-10-02T05:41:23.922Z,11.51
2016-10-02T05:42:23.912Z,11.55
2016-10-02T05:43:23.909Z,11.7
2016-10-02T05:44:23.926Z,11.78
2016-10-02T05:45:23.892Z,11.82
2016-10-02T05:46:23.882Z,11.9
2016-10-02T05:47:23.875Z,12.07
2016-10-02T05:48:23.869Z,12.16
2016-10-02T05:49:23.864Z,12.13
2016-10-02T05:50:23.862Z,12.39
2016-10-02T05:51:23.854Z,12.45
2016-10-02T05:52:23.847Z,12.54
2016-10-02T05:53:23.845Z,12.65
2016-10-02T05:55:24.924Z,12.72
2016-10-02T05:56:26.039Z,12.87
2016-10-02T05:57:23.820Z,13.01
2016-10-02T05:58:23.818Z,13.14
2016-10-02T05:59:24.900Z,13.15
2016-10-02T06:00:23.815Z,13.23
2016-10-02T06:01:23.808Z,13.36
2016-10-02T06:02:23.796Z,13.54
2016-10-02T06:03:24.050Z,13.62
2016-10-02T06:04:25.451Z,13.75
2016-10-02T06:05:24.632Z,13.87
2016-10-02T06:06:24.679Z,13.84
2016-10-02T06:07:24.522Z,14
2016-10-02T06:08:23.960Z,14.1
2016-10-02T06:09:23.766Z,14.17
2016-10-02T06:10:23.761Z,14.35
2016-10-02T06:11:23.754Z,14.35
2016-10-02T06:12:23.754Z,14.54
2016-10-02T06:13:23.749Z,14.54
2016-10-02T06:14:23.746Z,14.68
2016-10-02T06:15:23.735Z,14.8
2016-10-02T06:16:23.730Z,14.96
2016-10-02T06:17:23.730Z,14.91
2016-10-02T06:18:23.730Z,15.06
2016-10-02T06:19:23.731Z,15.19
2016-10-02T06:20:25.828Z,15.27
2016-10-02T06:21:23.868Z,15.36
2016-10-02T06:22:23.718Z,15.44
2016-10-02T06:23:23.723Z,15.41
2016-10-02T06:24:24.609Z,15.41
2016-10-02T06:25:24.508Z,15.56
2016-10-02T06:26:23.707Z,15.53
2016-10-02T06:27:23.699Z,15.78
2016-10-02T06:28:23.699Z,15.84
2016-10-02T06:29:24.049Z,15.97
2016-10-02T06:30:24.439Z,16
2016-10-02T06:32:23.686Z,16.08
2016-10-02T06:33:23.689Z,16.24
2016-10-02T06:34:23.686Z,16.28
2016-10-02T06:35:24.035Z,16.39
2016-10-02T06:36:23.685Z,16.49
2016-10-02T06:37:23.682Z,16.57
2016-10-02T06:38:23.679Z,16.7
2016-10-02T06:39:23.682Z,16.75
2016-10-02T06:40:23.932Z,16.78
2016-10-02T06:41:23.680Z,16.83
2016-10-02T06:42:23.681Z,16.96
2016-10-02T06:43:23.678Z,17.04
2016-10-02T06:44:23.679Z,17.06
2016-10-02T06:45:23.678Z,17.12
2016-10-02T06:46:23.682Z,17.18
2016-10-02T06:47:23.687Z,17.14
2016-10-02T06:48:23.677Z,17.12
2016-10-02T06:49:23.676Z,17.19
2016-10-02T06:50:23.671Z,17.26
2016-10-02T06:51:23.668Z,17.4
2016-10-02T06:52:23.676Z,17.48
2016-10-02T06:53:23.679Z,17.63
2016-10-02T06:54:23.675Z,17.77
2016-10-02T06:55:23.681Z,17.78
2016-10-02T06:56:23.676Z,17.99
2016-10-02T06:57:23.675Z,18.14
2016-10-02T06:58:23.684Z,18.18
2016-10-02T06:59:23.680Z,18.32
2016-10-02T07:00:23.679Z,18.35
2016-10-02T07:01:23.684Z,18.45
2016-10-02T07:02:23.689Z,18.47
2016-10-02T07:03:23.689Z,18.65
2016-10-02T07:04:23.695Z,18.73
2016-10-02T07:05:23.691Z,18.91
2016-10-02T07:06:23.691Z,18.91
2016-10-02T07:07:23.693Z,18.92
2016-10-02T07:08:23.700Z,18.94
2016-10-02T07:09:23.705Z,18.92
2016-10-02T07:10:23.703Z,19.06
2016-10-02T07:11:23.707Z,19.04
2016-10-02T07:13:25.114Z,19.26
2016-10-02T07:14:26.310Z,19.33
2016-10-02T07:15:24.036Z,19.5
2016-10-02T07:16:23.737Z,19.55
2016-10-02T07:17:23.727Z,19.55
2016-10-02T07:18:23.725Z,19.48
2016-10-02T07:19:23.905Z,19.51
2016-10-02T07:20:23.734Z,19.56
2016-10-02T07:21:24.560Z,19.58
2016-10-02T07:22:23.960Z,19.63
2016-10-02T07:23:25.214Z,19.69
2016-10-02T07:24:23.766Z,19.86
2016-10-02T07:25:23.750Z,19.95
2016-10-02T07:26:24.580Z,19.91
2016-10-02T07:27:23.757Z,19.92
2016-10-02T07:28:23.892Z,20.01
2016-10-02T07:29:23.768Z,20.05
2016-10-02T07:30:23.768Z,20.14
2016-10-02T07:31:23.782Z,20.24
2016-10-02T07:32:23.768Z,20.31
2016-10-02T07:33:23.782Z,20.38
2016-10-02T07:34:23.782Z,20.35
2016-10-02T07:35:23.788Z,20.42
2016-10-02T07:36:23.783Z,20.23
2016-10-02T07:37:23.796Z,20.2
2016-10-02T07:38:24.398Z,20.17
2016-10-02T07:39:24.706Z,20.16
2016-10-02T07:40:23.954Z,20.1
2016-10-02T07:41:38.728Z,19.92
2016-10-02T07:42:23.813Z,19.92
2016-10-02T07:43:23.815Z,19.83
2016-10-02T07:44:23.818Z,19.81
2016-10-02T07:45:23.823Z,19.71
2016-10-02T07:46:23.845Z,19.55
2016-10-02T07:49:47.315Z,19.25
2016-10-02T07:50:47.559Z,19.18
2016-10-02T07:51:47.366Z,19.07
2016-10-02T07:52:47.023Z,19.02
2016-10-02T07:53:47.018Z,18.91
2016-10-02T07:54:47.022Z,18.78
2016-10-02T07:55:47.021Z,18.8
2016-10-02T07:56:47.026Z,18.78
2016-10-02T07:57:47.024Z,18.78
2016-10-02T07:58:47.025Z,18.8
2016-10-02T07:59:47.031Z,18.65
2016-10-02T08:00:47.028Z,18.55
2016-10-02T08:01:47.036Z,18.55
2016-10-02T08:02:47.028Z,18.62
2016-10-02T08:03:47.040Z,18.58
2016-10-02T08:04:47.029Z,18.55
2016-10-02T08:05:47.040Z,18.57
2016-10-02T08:06:47.035Z,18.55
2016-10-02T08:07:47.047Z,18.6
2016-10-02T08:08:47.041Z,18.6
2016-10-02T08:09:47.042Z,18.57
2016-10-02T08:10:47.044Z,18.55
2016-10-02T08:11:47.034Z,18.51
2016-10-02T08:12:47.036Z,18.51
2016-10-02T08:13:47.038Z,18.39
2016-10-02T08:14:47.038Z,18.41
2016-10-02T08:15:47.038Z,18.52
2016-10-02T08:16:47.034Z,18.52
2016-10-02T08:17:47.041Z,18.54
2016-10-02T08:18:47.040Z,18.6
2016-10-02T08:19:47.045Z,18.75
2016-10-02T08:20:47.036Z,18.84
2016-10-02T08:21:47.035Z,18.78
2016-10-02T08:22:47.040Z,18.9
2016-10-02T08:23:47.040Z,19.13
2016-10-02T08:24:47.038Z,19.11
2016-10-02T08:25:47.042Z,19.26
2016-10-02T08:26:47.034Z,19.43
2016-10-02T08:27:47.039Z,19.48
2016-10-02T08:28:47.032Z,19.62
2016-10-02T08:30:49.946Z,19.74
2016-10-02T08:31:48.373Z,19.76
2016-10-02T08:32:48.309Z,19.77
2016-10-02T08:33:47.175Z,19.86
2016-10-02T08:34:47.035Z,19.78
2016-10-02T08:35:47.077Z,19.81
2016-10-02T08:36:47.039Z,19.83
2016-10-02T08:37:47.039Z,19.86
2016-10-02T08:38:48.176Z,19.88
2016-10-02T08:40:47.948Z,19.92
2016-10-02T08:41:48.001Z,19.92
2016-10-02T08:42:47.037Z,19.88
2016-10-02T08:43:48.365Z,19.84
2016-10-02T08:44:47.035Z,19.87
2016-10-02T08:45:47.033Z,19.91
2016-10-02T08:46:47.039Z,19.78
2016-10-02T08:47:47.033Z,19.86
2016-10-02T08:48:47.034Z,19.81
2016-10-02T08:49:47.036Z,19.84
2016-10-02T08:50:47.040Z,19.76
2016-10-02T08:51:47.033Z,19.66
2016-10-02T08:52:47.031Z,19.74
2016-10-02T08:53:47.030Z,19.71
2016-10-02T08:54:47.041Z,19.66
2016-10-02T08:55:47.029Z,19.54
2016-10-02T08:57:03.111Z,19.5
2016-10-02T08:59:02.097Z,19.36
2016-10-02T08:59:47.036Z,19.33
2016-10-02T09:00:47.032Z,19.39
2016-10-02T09:01:47.435Z,19.28
2016-10-02T09:02:47.038Z,19.08
2016-10-02T09:03:47.031Z,19.19
2016-10-02T09:04:47.044Z,19.07
2016-10-02T09:05:47.532Z,19.07
2016-10-02T09:06:47.031Z,19
2016-10-02T09:07:47.284Z,19.13
2016-10-02T09:08:48.790Z,19.19
2016-10-02T09:09:48.133Z,19.16
2016-10-02T09:10:47.032Z,19.07
2016-10-02T09:11:47.340Z,19.19
2016-10-02T09:12:47.128Z,18.99
2016-10-02T09:13:47.029Z,18.95
2016-10-02T09:14:47.027Z,18.9
2016-10-02T09:15:47.035Z,18.8
2016-10-02T09:16:47.026Z,18.8
2016-10-02T09:17:47.034Z,18.69
2016-10-02T09:18:47.028Z,18.67
2016-10-02T09:19:47.031Z,18.67
2016-10-02T09:20:47.032Z,18.65
2016-10-02T09:21:47.331Z,18.65
2016-10-02T09:22:47.022Z,18.65
2016-10-02T09:23:47.022Z,18.55
2016-10-02T09:24:47.022Z,18.52
2016-10-02T09:25:47.023Z,18.54
2016-10-02T09:26:47.018Z,18.57
2016-10-02T09:27:47.017Z,18.58
2016-10-02T09:28:47.014Z,18.55
2016-10-02T09:29:47.013Z,18.55
2016-10-02T09:30:47.014Z,18.44
2016-10-02T09:31:47.030Z,18.44
2016-10-02T09:32:47.015Z,18.32
2016-10-02T09:33:47.006Z,18.32
2016-10-02T09:34:47.010Z,18.3
2016-10-02T09:35:47.007Z,18.27
2016-10-02T09:36:47.007Z,18.29
2016-10-02T09:37:47.006Z,18.35
2016-10-02T09:38:46.996Z,18.35
2016-10-02T09:39:47.001Z,18.41
2016-10-02T09:40:47.001Z,18.42
2016-10-02T09:41:46.997Z,18.45
2016-10-02T09:42:46.992Z,18.52
2016-10-02T09:43:46.998Z,18.55
2016-10-02T09:44:46.990Z,18.63
2016-10-02T09:45:46.993Z,18.72
2016-10-02T09:46:46.988Z,18.69
2016-10-02T09:47:46.987Z,18.75
2016-10-02T09:48:47.989Z,18.7
2016-10-02T09:49:49.553Z,18.7
2016-10-02T09:50:46.983Z,18.7
2016-10-02T09:51:46.982Z,18.67
2016-10-02T09:52:47.042Z,18.7
2016-10-02T09:53:47.543Z,18.67
2016-10-02T09:54:46.976Z,18.8
2016-10-02T09:55:46.979Z,18.75
2016-10-02T09:56:46.975Z,18.78
2016-10-02T09:57:47.118Z,18.9
2016-10-02T09:58:48.975Z,18.95
2016-10-02T09:59:49.142Z,19.04
2016-10-02T10:00:48.046Z,19.1
2016-10-02T10:01:46.971Z,19.32
2016-10-02T10:02:47.522Z,19.46
2016-10-02T10:03:46.966Z,19.48
2016-10-02T10:04:46.960Z,19.65
2016-10-02T10:05:46.961Z,19.91
2016-10-02T10:06:47.210Z,19.95
2016-10-02T10:07:46.955Z,20.11
2016-10-02T10:08:46.956Z,20.03
2016-10-02T10:09:46.953Z,20.16
2016-10-02T10:10:46.951Z,20.23
2016-10-02T10:11:47.199Z,20.29
2016-10-02T10:12:46.952Z,20.24
2016-10-02T10:13:46.955Z,20.28
2016-10-02T10:14:47.904Z,20.29
2016-10-02T10:15:47.554Z,20.29
2016-10-02T10:16:47.203Z,20.33
2016-10-02T10:17:47.792Z,20.33
2016-10-02T10:18:47.247Z,20.36
2016-10-02T10:19:46.953Z,20.55
2016-10-02T10:20:46.944Z,20.58
2016-10-02T10:21:47.190Z,20.7
2016-10-02T10:22:46.946Z,20.8
2016-10-02T10:24:01.862Z,20.88
2016-10-02T10:25:02.563Z,20.95
2016-10-02T10:25:47.241Z,21.03
2016-10-02T10:26:47.295Z,21.1
2016-10-02T10:27:46.954Z,21.14
2016-10-02T10:28:46.943Z,21.25
2016-10-02T10:29:46.982Z,21.31
2016-10-02T10:30:46.950Z,21.28
2016-10-02T10:31:47.200Z,21.34
2016-10-02T10:32:46.943Z,21.25
2016-10-02T10:33:46.947Z,21.27
2016-10-02T10:34:46.947Z,21.17
2016-10-02T10:35:46.947Z,21.28
2016-10-02T10:36:47.201Z,21.17
2016-10-02T10:37:46.979Z,21.13
2016-10-02T10:38:46.953Z,21.16
2016-10-02T10:39:46.950Z,21.12
2016-10-02T10:40:46.948Z,21.12
2016-10-02T10:41:47.198Z,21.14
2016-10-02T10:42:46.953Z,21.17
2016-10-02T10:43:46.947Z,21.22
2016-10-02T10:44:46.952Z,21.19
2016-10-02T10:45:46.953Z,21.22
2016-10-02T10:46:47.252Z,21.13
2016-10-02T10:47:46.948Z,21.24
2016-10-02T10:48:46.951Z,21.22
2016-10-02T10:49:46.951Z,21.19
2016-10-02T10:50:46.958Z,21.13
2016-10-02T10:51:47.208Z,21.1
2016-10-02T10:52:46.953Z,21.14
2016-10-02T10:53:46.957Z,21.21
2016-10-02T10:54:46.954Z,21.31
2016-10-02T10:55:46.962Z,21.4
2016-10-02T10:56:47.260Z,21.42
2016-10-02T10:57:46.954Z,21.43
2016-10-02T10:58:46.960Z,21.52
2016-10-02T10:59:46.960Z,21.44
2016-10-02T11:00:46.963Z,21.5
2016-10-02T11:01:47.217Z,21.54
2016-10-02T11:02:46.965Z,21.59
2016-10-02T11:03:46.971Z,21.62
2016-10-02T11:04:46.962Z,21.62
2016-10-02T11:05:46.988Z,21.64
2016-10-02T11:06:47.220Z,21.75
2016-10-02T11:07:47.480Z,21.79
2016-10-02T11:08:47.757Z,21.69
2016-10-02T11:09:47.678Z,21.69
2016-10-02T11:10:46.969Z,21.65
2016-10-02T11:11:47.232Z,21.67
2016-10-02T11:12:46.978Z,21.69
2016-10-02T11:13:46.973Z,21.65
2016-10-02T11:14:46.991Z,21.64
2016-10-02T11:15:48.793Z,21.37
2016-10-02T11:16:47.240Z,21.4
2016-10-02T11:17:47.435Z,21.25
2016-10-02T11:18:47.420Z,21.17
2016-10-02T11:19:46.984Z,21.07
2016-10-02T11:20:46.994Z,21.12
2016-10-02T11:21:46.979Z,21.1
2016-10-02T11:22:46.986Z,21.07
2016-10-02T11:23:46.980Z,21.13
2016-10-02T11:24:46.987Z,21.09
2016-10-02T11:25:46.990Z,21.12
2016-10-02T11:26:46.985Z,20.98
2016-10-02T11:27:46.994Z,20.97
2016-10-02T11:28:46.989Z,20.88
2016-10-02T11:29:46.995Z,20.8
2016-10-02T11:30:46.989Z,20.69
2016-10-02T11:31:46.994Z,20.69
2016-10-02T11:32:47.190Z,20.57
2016-10-02T11:33:47.304Z,20.47
2016-10-02T11:35:02.558Z,20.51
2016-10-02T11:35:46.984Z,20.52
2016-10-02T11:36:46.987Z,20.54
2016-10-02T11:37:47.487Z,20.57
2016-10-02T11:38:46.991Z,20.52
2016-10-02T11:39:46.989Z,20.54
2016-10-02T11:40:46.990Z,20.67
2016-10-02T11:42:47.689Z,20.66
2016-10-02T11:44:46.997Z,20.69
2016-10-02T11:45:46.982Z,20.62
2016-10-02T11:46:47.346Z,20.64
2016-10-02T11:47:46.984Z,20.57
2016-10-02T11:48:46.994Z,20.55
2016-10-02T11:49:46.983Z,20.57
2016-10-02T11:50:46.988Z,20.51
2016-10-02T11:51:46.985Z,20.54
2016-10-02T11:52:46.985Z,20.61
2016-10-02T11:53:46.990Z,20.74
2016-10-02T11:54:46.991Z,20.73
2016-10-02T11:55:47.003Z,20.88
2016-10-02T11:56:46.987Z,21.01
2016-10-02T11:57:46.985Z,21.03
2016-10-02T11:58:46.989Z,21.1
2016-10-02T11:59:46.981Z,21.12
2016-10-02T12:00:46.987Z,21.1
2016-10-02T12:01:46.975Z,21.03
2016-10-02T12:02:46.981Z,20.99
2016-10-02T12:03:46.974Z,20.88
2016-10-02T12:04:46.976Z,20.85
2016-10-02T12:05:46.978Z,20.85
2016-10-02T12:06:46.985Z,20.82
2016-10-02T12:07:46.979Z,20.8
2016-10-02T12:08:46.987Z,20.82
2016-10-02T12:09:46.982Z,20.79
2016-10-02T12:10:46.978Z,20.84
2016-10-02T12:11:46.991Z,20.88
2016-10-02T12:12:46.984Z,20.87
2016-10-02T12:13:46.979Z,20.92
2016-10-02T12:14:46.980Z,20.91
2016-10-02T12:15:46.975Z,20.97
2016-10-02T12:16:46.978Z,20.95
2016-10-02T12:17:46.985Z,21.03
2016-10-02T12:18:46.978Z,20.99
2016-10-02T12:19:46.974Z,20.99
2016-10-02T12:20:46.974Z,21.01
2016-10-02T12:21:46.976Z,21.09
2016-10-02T12:22:46.987Z,21.04
2016-10-02T12:23:46.985Z,21.04
2016-10-02T12:24:48.483Z,21.07
2016-10-02T12:25:48.422Z,21.09
2016-10-02T12:26:46.981Z,21.12
2016-10-02T12:27:46.978Z,21.16
2016-10-02T12:28:47.743Z,21.24
2016-10-02T12:29:46.979Z,21.29
2016-10-02T12:30:46.981Z,21.37
2016-10-02T12:31:46.978Z,21.32
2016-10-02T12:32:46.980Z,21.29
2016-10-02T12:33:47.901Z,21.37
2016-10-02T12:34:48.342Z,21.42
2016-10-02T12:35:46.980Z,21.46
2016-10-02T12:36:48.653Z,21.46
2016-10-02T12:37:47.448Z,21.5
2016-10-02T12:38:46.983Z,21.49
2016-10-02T12:39:46.981Z,21.59
2016-10-02T12:40:46.979Z,21.56
2016-10-02T12:41:46.986Z,21.65
2016-10-02T12:42:46.980Z,21.68
2016-10-02T12:43:46.981Z,21.8
2016-10-02T12:44:46.983Z,21.75
2016-10-02T12:45:46.988Z,21.88
2016-10-02T12:46:46.986Z,21.86
2016-10-02T12:47:46.982Z,21.88
2016-10-02T12:48:46.985Z,21.94
2016-10-02T12:49:46.992Z,22.05
2016-10-02T12:50:47.286Z,22
2016-10-02T12:51:47.023Z,21.98
2016-10-02T12:54:01.907Z,21.98
2016-10-02T12:55:01.904Z,21.88
2016-10-02T12:55:47.040Z,21.84
2016-10-02T12:56:46.990Z,21.68
2016-10-02T12:57:46.998Z,21.58
2016-10-02T12:58:46.992Z,21.56
2016-10-02T12:59:48.697Z,21.43
2016-10-02T13:01:47.042Z,21.32
2016-10-02T13:02:47.749Z,21.28
2016-10-02T13:03:47.696Z,21.19
2016-10-02T13:04:46.992Z,21.17
2016-10-02T13:05:47.194Z,21.13
2016-10-02T13:06:47.154Z,21.1
2016-10-02T13:07:46.997Z,21.09
2016-10-02T13:08:46.999Z,20.98